sensor_id;sensor_type;location;lat;lon;timestamp;P1;durP1;ratioP1;P2;durP2;ratioP2
71343;SDS011;59146;43.850;25.948;2023-06-10T00:02:28;15.73;;;6.30;;
71343;SDS011;59146;43.850;25.948;2023-06-10T00:04:53;9.82;;;6.32;;
71343;SDS011;59146;43.850;25.948;2023-06-10T00:07:19;12.00;;;5.85;;
71343;SDS011;59146;43.850;25.948;2023-06-10T00:09:44;12.55;;;5.63;;
71343;SDS011;59146;43.850;25.948;2023-06-10T00:12:10;10.45;;;5.95;;
71343;SDS011;59146;43.850;25.948;2023-06-10T00:14:36;10.20;;;6.22;;
71343;SDS011;59146;43.850;25.948;2023-06-10T00:17:03;9.77;;;5.82;;
71343;SDS011;59146;43.850;25.948;2023-06-10T00:19:29;8.40;;;6.00;;
71343;SDS011;59146;43.850;25.948;2023-06-10T00:21:58;9.77;;;5.82;;
71343;SDS011;59146;43.850;25.948;2023-06-10T00:24:24;8.43;;;5.63;;
71343;SDS011;59146;43.850;25.948;2023-06-10T00:26:49;15.00;;;6.60;;
71343;SDS011;59146;43.850;25.948;2023-06-10T00:29:15;10.10;;;5.32;;
71343;SDS011;59146;43.850;25.948;2023-06-10T00:31:41;16.67;;;5.90;;
71343;SDS011;59146;43.850;25.948;2023-06-10T00:34:07;15.48;;;5.80;;
71343;SDS011;59146;43.850;25.948;2023-06-10T00:36:33;8.35;;;5.35;;
71343;SDS011;59146;43.850;25.948;2023-06-10T00:38:58;8.15;;;5.22;;
71343;SDS011;59146;43.850;25.948;2023-06-10T00:41:24;7.35;;;5.22;;
71343;SDS011;59146;43.850;25.948;2023-06-10T00:43:51;7.10;;;4.97;;
71343;SDS011;59146;43.850;25.948;2023-06-10T00:46:18;7.95;;;5.05;;
71343;SDS011;59146;43.850;25.948;2023-06-10T00:48:45;10.48;;;5.45;;
71343;SDS011;59146;43.850;25.948;2023-06-10T00:51:11;9.27;;;5.38;;
71343;SDS011;59146;43.850;25.948;2023-06-10T00:53:37;7.18;;;5.35;;
71343;SDS011;59146;43.850;25.948;2023-06-10T00:56:05;10.88;;;5.38;;
71343;SDS011;59146;43.850;25.948;2023-06-10T00:58:31;13.45;;;5.53;;
71343;SDS011;59146;43.850;25.948;2023-06-10T01:00:57;27.67;;;5.85;;
71343;SDS011;59146;43.850;25.948;2023-06-10T01:03:23;9.60;;;5.13;;
71343;SDS011;59146;43.850;25.948;2023-06-10T01:05:57;10.57;;;5.15;;
71343;SDS011;59146;43.850;25.948;2023-06-10T01:08:38;7.30;;;4.63;;
71343;SDS011;59146;43.850;25.948;2023-06-10T01:11:17;12.10;;;5.38;;
71343;SDS011;59146;43.850;25.948;2023-06-10T01:13:50;7.30;;;4.32;;
71343;SDS011;59146;43.850;25.948;2023-06-10T01:16:17;8.20;;;5.03;;
71343;SDS011;59146;43.850;25.948;2023-06-10T01:18:44;7.40;;;4.97;;
71343;SDS011;59146;43.850;25.948;2023-06-10T01:21:13;8.63;;;4.88;;
71343;SDS011;59146;43.850;25.948;2023-06-10T01:23:46;7.15;;;5.32;;
71343;SDS011;59146;43.850;25.948;2023-06-10T01:26:12;10.30;;;5.45;;
71343;SDS011;59146;43.850;25.948;2023-06-10T01:31:09;8.02;;;5.10;;
71343;SDS011;59146;43.850;25.948;2023-06-10T01:33:51;6.60;;;4.78;;
71343;SDS011;59146;43.850;25.948;2023-06-10T01:36:18;9.05;;;5.30;;
71343;SDS011;59146;43.850;25.948;2023-06-10T01:38:45;6.65;;;5.25;;
71343;SDS011;59146;43.850;25.948;2023-06-10T01:41:13;10.13;;;5.30;;
71343;SDS011;59146;43.850;25.948;2023-06-10T01:43:45;8.35;;;4.78;;
71343;SDS011;59146;43.850;25.948;2023-06-10T01:46:11;7.32;;;4.45;;
71343;SDS011;59146;43.850;25.948;2023-06-10T01:48:37;8.75;;;5.55;;
71343;SDS011;59146;43.850;25.948;2023-06-10T01:51:02;6.80;;;4.70;;
71343;SDS011;59146;43.850;25.948;2023-06-10T01:53:28;10.57;;;4.60;;
71343;SDS011;59146;43.850;25.948;2023-06-10T01:55:53;10.65;;;5.70;;
71343;SDS011;59146;43.850;25.948;2023-06-10T01:58:19;8.20;;;5.35;;
71343;SDS011;59146;43.850;25.948;2023-06-10T02:00:44;12.98;;;5.35;;
71343;SDS011;59146;43.850;25.948;2023-06-10T02:03:10;8.05;;;5.15;;
71343;SDS011;59146;43.850;25.948;2023-06-10T02:05:35;8.23;;;4.88;;
71343;SDS011;59146;43.850;25.948;2023-06-10T02:08:00;8.98;;;4.80;;
71343;SDS011;59146;43.850;25.948;2023-06-10T02:10:26;9.48;;;4.43;;
71343;SDS011;59146;43.850;25.948;2023-06-10T02:12:51;7.85;;;4.72;;
71343;SDS011;59146;43.850;25.948;2023-06-10T02:15:17;8.98;;;5.35;;
71343;SDS011;59146;43.850;25.948;2023-06-10T02:17:42;8.82;;;5.35;;
71343;SDS011;59146;43.850;25.948;2023-06-10T02:20:09;8.52;;;5.65;;
71343;SDS011;59146;43.850;25.948;2023-06-10T02:22:36;9.55;;;4.63;;
71343;SDS011;59146;43.850;25.948;2023-06-10T02:25:02;10.57;;;4.78;;
71343;SDS011;59146;43.850;25.948;2023-06-10T02:27:28;9.68;;;4.78;;
71343;SDS011;59146;43.850;25.948;2023-06-10T02:29:55;7.97;;;4.97;;
71343;SDS011;59146;43.850;25.948;2023-06-10T02:32:21;9.90;;;5.47;;
71343;SDS011;59146;43.850;25.948;2023-06-10T02:34:46;7.93;;;4.90;;
71343;SDS011;59146;43.850;25.948;2023-06-10T02:37:12;8.48;;;4.68;;
71343;SDS011;59146;43.850;25.948;2023-06-10T02:39:38;13.52;;;4.75;;
71343;SDS011;59146;43.850;25.948;2023-06-10T02:42:03;12.90;;;5.38;;
71343;SDS011;59146;43.850;25.948;2023-06-10T02:44:30;12.30;;;6.13;;
71343;SDS011;59146;43.850;25.948;2023-06-10T02:46:55;11.63;;;5.13;;
71343;SDS011;59146;43.850;25.948;2023-06-10T02:49:21;8.10;;;4.30;;
71343;SDS011;59146;43.850;25.948;2023-06-10T02:51:46;12.90;;;8.57;;
71343;SDS011;59146;43.850;25.948;2023-06-10T02:54:12;13.82;;;8.43;;
71343;SDS011;59146;43.850;25.948;2023-06-10T02:56:37;17.65;;;9.60;;
71343;SDS011;59146;43.850;25.948;2023-06-10T02:59:06;21.95;;;11.65;;
71343;SDS011;59146;43.850;25.948;2023-06-10T03:01:33;19.40;;;11.30;;
71343;SDS011;59146;43.850;25.948;2023-06-10T03:04:01;19.88;;;10.70;;
71343;SDS011;59146;43.850;25.948;2023-06-10T03:06:27;19.40;;;12.30;;
71343;SDS011;59146;43.850;25.948;2023-06-10T03:08:54;21.67;;;11.20;;
71343;SDS011;59146;43.850;25.948;2023-06-10T03:11:19;22.80;;;11.40;;
71343;SDS011;59146;43.850;25.948;2023-06-10T03:13:45;21.92;;;12.48;;
71343;SDS011;59146;43.850;25.948;2023-06-10T03:16:10;23.40;;;13.00;;
71343;SDS011;59146;43.850;25.948;2023-06-10T03:18:37;22.35;;;12.27;;
71343;SDS011;59146;43.850;25.948;2023-06-10T03:21:03;22.85;;;11.77;;
71343;SDS011;59146;43.850;25.948;2023-06-10T03:23:28;25.42;;;10.70;;
71343;SDS011;59146;43.850;25.948;2023-06-10T03:25:54;51.38;;;13.43;;
71343;SDS011;59146;43.850;25.948;2023-06-10T03:28:20;21.60;;;10.18;;
71343;SDS011;59146;43.850;25.948;2023-06-10T03:30:46;20.23;;;9.65;;
71343;SDS011;59146;43.850;25.948;2023-06-10T03:33:12;19.17;;;9.88;;
71343;SDS011;59146;43.850;25.948;2023-06-10T03:35:38;12.65;;;8.07;;
71343;SDS011;59146;43.850;25.948;2023-06-10T03:38:04;16.92;;;7.72;;
71343;SDS011;59146;43.850;25.948;2023-06-10T03:40:30;15.75;;;8.13;;
71343;SDS011;59146;43.850;25.948;2023-06-10T03:42:56;10.45;;;7.22;;
71343;SDS011;59146;43.850;25.948;2023-06-10T03:45:22;13.95;;;7.63;;
71343;SDS011;59146;43.850;25.948;2023-06-10T03:47:48;12.25;;;7.57;;
71343;SDS011;59146;43.850;25.948;2023-06-10T03:50:13;14.82;;;7.47;;
71343;SDS011;59146;43.850;25.948;2023-06-10T03:52:38;16.17;;;8.07;;
71343;SDS011;59146;43.850;25.948;2023-06-10T03:55:05;14.35;;;7.22;;
71343;SDS011;59146;43.850;25.948;2023-06-10T03:57:31;10.23;;;7.00;;
71343;SDS011;59146;43.850;25.948;2023-06-10T03:59:56;13.65;;;6.57;;
71343;SDS011;59146;43.850;25.948;2023-06-10T04:02:22;9.75;;;6.10;;
71343;SDS011;59146;43.850;25.948;2023-06-10T04:04:47;14.27;;;6.80;;
71343;SDS011;59146;43.850;25.948;2023-06-10T04:07:13;11.68;;;6.03;;
71343;SDS011;59146;43.850;25.948;2023-06-10T04:09:39;11.98;;;6.68;;
71343;SDS011;59146;43.850;25.948;2023-06-10T04:12:04;13.05;;;7.07;;
71343;SDS011;59146;43.850;25.948;2023-06-10T04:14:34;17.27;;;6.82;;
71343;SDS011;59146;43.850;25.948;2023-06-10T04:17:01;17.15;;;6.35;;
71343;SDS011;59146;43.850;25.948;2023-06-10T04:19:27;9.73;;;6.57;;
71343;SDS011;59146;43.850;25.948;2023-06-10T04:21:53;12.57;;;6.70;;
71343;SDS011;59146;43.850;25.948;2023-06-10T04:24:19;11.40;;;6.45;;
71343;SDS011;59146;43.850;25.948;2023-06-10T04:26:44;13.02;;;6.57;;
71343;SDS011;59146;43.850;25.948;2023-06-10T04:29:10;12.60;;;6.68;;
71343;SDS011;59146;43.850;25.948;2023-06-10T04:31:35;20.75;;;7.07;;
71343;SDS011;59146;43.850;25.948;2023-06-10T04:34:01;12.52;;;6.82;;
71343;SDS011;59146;43.850;25.948;2023-06-10T04:36:26;15.32;;;6.95;;
71343;SDS011;59146;43.850;25.948;2023-06-10T04:38:54;19.08;;;6.60;;
71343;SDS011;59146;43.850;25.948;2023-06-10T04:41:19;11.57;;;5.88;;
71343;SDS011;59146;43.850;25.948;2023-06-10T04:43:45;13.27;;;6.35;;
71343;SDS011;59146;43.850;25.948;2023-06-10T04:46:10;11.82;;;6.90;;
71343;SDS011;59146;43.850;25.948;2023-06-10T04:48:36;16.48;;;6.78;;
71343;SDS011;59146;43.850;25.948;2023-06-10T04:51:02;10.70;;;6.40;;
71343;SDS011;59146;43.850;25.948;2023-06-10T04:53:27;11.35;;;7.00;;
71343;SDS011;59146;43.850;25.948;2023-06-10T04:55:53;12.40;;;6.75;;
71343;SDS011;59146;43.850;25.948;2023-06-10T04:58:19;14.73;;;6.68;;
71343;SDS011;59146;43.850;25.948;2023-06-10T05:00:44;8.65;;;6.43;;
71343;SDS011;59146;43.850;25.948;2023-06-10T05:03:10;13.90;;;6.90;;
71343;SDS011;59146;43.850;25.948;2023-06-10T05:05:35;10.50;;;6.50;;
71343;SDS011;59146;43.850;25.948;2023-06-10T05:08:01;16.27;;;6.78;;
71343;SDS011;59146;43.850;25.948;2023-06-10T05:10:26;18.13;;;6.85;;
71343;SDS011;59146;43.850;25.948;2023-06-10T05:12:52;15.18;;;7.10;;
71343;SDS011;59146;43.850;25.948;2023-06-10T05:15:17;12.07;;;6.80;;
71343;SDS011;59146;43.850;25.948;2023-06-10T05:17:42;14.68;;;6.40;;
71343;SDS011;59146;43.850;25.948;2023-06-10T05:20:08;16.42;;;6.78;;
71343;SDS011;59146;43.850;25.948;2023-06-10T05:22:34;11.15;;;6.90;;
71343;SDS011;59146;43.850;25.948;2023-06-10T05:24:59;11.15;;;6.88;;
71343;SDS011;59146;43.850;25.948;2023-06-10T05:27:25;10.85;;;6.47;;
71343;SDS011;59146;43.850;25.948;2023-06-10T05:29:50;11.35;;;6.38;;
71343;SDS011;59146;43.850;25.948;2023-06-10T05:32:16;9.02;;;5.75;;
71343;SDS011;59146;43.850;25.948;2023-06-10T05:34:42;12.43;;;7.10;;
71343;SDS011;59146;43.850;25.948;2023-06-10T05:37:08;12.48;;;6.57;;
71343;SDS011;59146;43.850;25.948;2023-06-10T05:39:35;14.00;;;7.32;;
71343;SDS011;59146;43.850;25.948;2023-06-10T05:42:03;11.68;;;7.53;;
71343;SDS011;59146;43.850;25.948;2023-06-10T05:44:29;14.60;;;6.28;;
71343;SDS011;59146;43.850;25.948;2023-06-10T05:46:54;11.15;;;7.20;;
71343;SDS011;59146;43.850;25.948;2023-06-10T05:49:20;12.75;;;7.60;;
71343;SDS011;59146;43.850;25.948;2023-06-10T05:51:45;14.02;;;6.90;;
71343;SDS011;59146;43.850;25.948;2023-06-10T05:54:11;14.32;;;6.70;;
71343;SDS011;59146;43.850;25.948;2023-06-10T05:56:36;11.43;;;7.65;;
71343;SDS011;59146;43.850;25.948;2023-06-10T05:59:01;11.07;;;7.05;;
71343;SDS011;59146;43.850;25.948;2023-06-10T06:01:27;11.43;;;7.07;;
71343;SDS011;59146;43.850;25.948;2023-06-10T06:03:52;11.93;;;6.78;;
71343;SDS011;59146;43.850;25.948;2023-06-10T06:06:18;14.63;;;6.60;;
71343;SDS011;59146;43.850;25.948;2023-06-10T06:08:45;10.23;;;6.90;;
71343;SDS011;59146;43.850;25.948;2023-06-10T06:11:10;16.25;;;6.30;;
71343;SDS011;59146;43.850;25.948;2023-06-10T06:13:36;14.75;;;5.82;;
71343;SDS011;59146;43.850;25.948;2023-06-10T06:16:01;13.35;;;6.68;;
71343;SDS011;59146;43.850;25.948;2023-06-10T06:18:26;11.75;;;6.57;;
71343;SDS011;59146;43.850;25.948;2023-06-10T06:20:52;9.23;;;6.80;;
71343;SDS011;59146;43.850;25.948;2023-06-10T06:23:17;11.90;;;6.72;;
71343;SDS011;59146;43.850;25.948;2023-06-10T06:25:43;9.57;;;6.20;;
71343;SDS011;59146;43.850;25.948;2023-06-10T06:28:09;12.27;;;6.10;;
71343;SDS011;59146;43.850;25.948;2023-06-10T06:30:35;10.50;;;5.93;;
71343;SDS011;59146;43.850;25.948;2023-06-10T06:33:00;12.48;;;6.68;;
71343;SDS011;59146;43.850;25.948;2023-06-10T06:35:26;9.40;;;5.90;;
71343;SDS011;59146;43.850;25.948;2023-06-10T06:37:52;9.27;;;6.45;;
71343;SDS011;59146;43.850;25.948;2023-06-10T06:40:17;8.32;;;6.57;;
71343;SDS011;59146;43.850;25.948;2023-06-10T06:42:43;10.68;;;6.00;;
71343;SDS011;59146;43.850;25.948;2023-06-10T06:45:08;15.30;;;6.50;;
71343;SDS011;59146;43.850;25.948;2023-06-10T06:47:34;11.38;;;5.75;;
71343;SDS011;59146;43.850;25.948;2023-06-10T06:49:59;14.55;;;7.45;;
71343;SDS011;59146;43.850;25.948;2023-06-10T06:52:25;9.65;;;5.90;;
71343;SDS011;59146;43.850;25.948;2023-06-10T06:54:50;17.58;;;6.57;;
71343;SDS011;59146;43.850;25.948;2023-06-10T06:57:15;11.93;;;6.15;;
71343;SDS011;59146;43.850;25.948;2023-06-10T06:59:41;7.03;;;6.13;;
71343;SDS011;59146;43.850;25.948;2023-06-10T07:02:06;15.15;;;5.70;;
71343;SDS011;59146;43.850;25.948;2023-06-10T07:04:32;8.25;;;6.10;;
71343;SDS011;59146;43.850;25.948;2023-06-10T07:06:57;12.18;;;6.28;;
71343;SDS011;59146;43.850;25.948;2023-06-10T07:09:22;7.93;;;6.10;;
71343;SDS011;59146;43.850;25.948;2023-06-10T07:11:48;10.55;;;5.93;;
71343;SDS011;59146;43.850;25.948;2023-06-10T07:14:13;10.55;;;6.40;;
71343;SDS011;59146;43.850;25.948;2023-06-10T07:16:39;16.30;;;7.22;;
71343;SDS011;59146;43.850;25.948;2023-06-10T07:19:04;7.78;;;5.97;;
71343;SDS011;59146;43.850;25.948;2023-06-10T07:21:30;9.77;;;6.32;;
71343;SDS011;59146;43.850;25.948;2023-06-10T07:23:55;10.50;;;6.32;;
71343;SDS011;59146;43.850;25.948;2023-06-10T07:26:24;11.88;;;6.72;;
71343;SDS011;59146;43.850;25.948;2023-06-10T07:28:50;12.15;;;6.63;;
71343;SDS011;59146;43.850;25.948;2023-06-10T07:31:16;11.77;;;6.75;;
71343;SDS011;59146;43.850;25.948;2023-06-10T07:33:41;13.00;;;6.95;;
71343;SDS011;59146;43.850;25.948;2023-06-10T07:36:08;13.80;;;6.93;;
71343;SDS011;59146;43.850;25.948;2023-06-10T07:38:34;14.90;;;7.35;;
71343;SDS011;59146;43.850;25.948;2023-06-10T07:41:00;17.83;;;6.78;;
71343;SDS011;59146;43.850;25.948;2023-06-10T07:43:25;25.17;;;6.85;;
71343;SDS011;59146;43.850;25.948;2023-06-10T07:45:51;12.93;;;6.75;;
71343;SDS011;59146;43.850;25.948;2023-06-10T07:48:16;9.02;;;6.35;;
71343;SDS011;59146;43.850;25.948;2023-06-10T07:50:42;8.15;;;6.43;;
71343;SDS011;59146;43.850;25.948;2023-06-10T07:53:07;11.27;;;6.35;;
71343;SDS011;59146;43.850;25.948;2023-06-10T07:55:33;11.52;;;6.82;;
71343;SDS011;59146;43.850;25.948;2023-06-10T07:57:58;10.13;;;6.55;;
71343;SDS011;59146;43.850;25.948;2023-06-10T08:00:24;31.48;;;23.60;;
71343;SDS011;59146;43.850;25.948;2023-06-10T08:02:49;11.45;;;6.95;;
71343;SDS011;59146;43.850;25.948;2023-06-10T08:05:15;13.43;;;6.63;;
71343;SDS011;59146;43.850;25.948;2023-06-10T08:07:41;13.57;;;6.63;;
71343;SDS011;59146;43.850;25.948;2023-06-10T08:10:07;13.02;;;6.07;;
71343;SDS011;59146;43.850;25.948;2023-06-10T08:12:36;15.15;;;7.60;;
71343;SDS011;59146;43.850;25.948;2023-06-10T08:15:02;14.23;;;7.43;;
71343;SDS011;59146;43.850;25.948;2023-06-10T08:17:29;14.05;;;7.43;;
71343;SDS011;59146;43.850;25.948;2023-06-10T08:19:54;12.98;;;6.63;;
71343;SDS011;59146;43.850;25.948;2023-06-10T08:22:20;14.05;;;6.80;;
71343;SDS011;59146;43.850;25.948;2023-06-10T08:24:45;18.95;;;7.20;;
71343;SDS011;59146;43.850;25.948;2023-06-10T08:27:11;16.38;;;8.07;;
71343;SDS011;59146;43.850;25.948;2023-06-10T08:29:36;13.77;;;7.93;;
71343;SDS011;59146;43.850;25.948;2023-06-10T08:32:02;17.13;;;7.88;;
71343;SDS011;59146;43.850;25.948;2023-06-10T08:34:27;11.63;;;7.50;;
71343;SDS011;59146;43.850;25.948;2023-06-10T08:36:53;19.98;;;7.97;;
71343;SDS011;59146;43.850;25.948;2023-06-10T08:39:20;21.38;;;8.05;;
71343;SDS011;59146;43.850;25.948;2023-06-10T08:41:55;19.95;;;7.28;;
71343;SDS011;59146;43.850;25.948;2023-06-10T08:44:29;19.73;;;8.15;;
71343;SDS011;59146;43.850;25.948;2023-06-10T08:46:59;21.10;;;7.90;;
71343;SDS011;59146;43.850;25.948;2023-06-10T08:49:26;14.45;;;8.02;;
71343;SDS011;59146;43.850;25.948;2023-06-10T08:51:58;15.10;;;7.95;;
71343;SDS011;59146;43.850;25.948;2023-06-10T08:54:28;17.45;;;9.05;;
71343;SDS011;59146;43.850;25.948;2023-06-10T08:56:57;17.50;;;8.30;;
71343;SDS011;59146;43.850;25.948;2023-06-10T08:59:24;11.13;;;7.72;;
71343;SDS011;59146;43.850;25.948;2023-06-10T09:01:51;15.40;;;7.38;;
71343;SDS011;59146;43.850;25.948;2023-06-10T09:04:18;14.75;;;8.18;;
71343;SDS011;59146;43.850;25.948;2023-06-10T09:06:45;13.88;;;8.05;;
71343;SDS011;59146;43.850;25.948;2023-06-10T09:09:11;17.23;;;8.10;;
71343;SDS011;59146;43.850;25.948;2023-06-10T09:11:38;17.70;;;8.75;;
71343;SDS011;59146;43.850;25.948;2023-06-10T09:14:05;16.45;;;7.95;;
71343;SDS011;59146;43.850;25.948;2023-06-10T09:16:31;12.27;;;7.65;;
71343;SDS011;59146;43.850;25.948;2023-06-10T09:18:56;15.20;;;8.05;;
71343;SDS011;59146;43.850;25.948;2023-06-10T09:21:25;18.75;;;8.50;;
71343;SDS011;59146;43.850;25.948;2023-06-10T09:23:50;16.52;;;8.48;;
71343;SDS011;59146;43.850;25.948;2023-06-10T09:26:16;14.60;;;7.85;;
71343;SDS011;59146;43.850;25.948;2023-06-10T09:28:43;20.25;;;8.05;;
71343;SDS011;59146;43.850;25.948;2023-06-10T09:31:09;14.13;;;7.90;;
71343;SDS011;59146;43.850;25.948;2023-06-10T09:33:37;16.33;;;7.80;;
71343;SDS011;59146;43.850;25.948;2023-06-10T09:36:04;14.32;;;8.00;;
71343;SDS011;59146;43.850;25.948;2023-06-10T09:38:31;14.70;;;8.10;;
71343;SDS011;59146;43.850;25.948;2023-06-10T09:40:57;18.27;;;7.78;;
71343;SDS011;59146;43.850;25.948;2023-06-10T09:43:24;24.27;;;9.15;;
71343;SDS011;59146;43.850;25.948;2023-06-10T09:46:17;15.90;;;8.55;;
71343;SDS011;59146;43.850;25.948;2023-06-10T09:48:44;16.42;;;8.23;;
71343;SDS011;59146;43.850;25.948;2023-06-10T09:51:11;15.52;;;7.90;;
71343;SDS011;59146;43.850;25.948;2023-06-10T09:53:38;14.60;;;7.57;;
71343;SDS011;59146;43.850;25.948;2023-06-10T09:56:04;13.45;;;7.97;;
71343;SDS011;59146;43.850;25.948;2023-06-10T09:58:49;14.77;;;7.47;;
71343;SDS011;59146;43.850;25.948;2023-06-10T10:01:18;13.27;;;6.78;;
71343;SDS011;59146;43.850;25.948;2023-06-10T10:03:47;16.05;;;7.18;;
71343;SDS011;59146;43.850;25.948;2023-06-10T10:06:16;15.82;;;8.98;;
71343;SDS011;59146;43.850;25.948;2023-06-10T10:08:43;13.98;;;7.57;;
71343;SDS011;59146;43.850;25.948;2023-06-10T10:11:09;16.13;;;8.45;;
71343;SDS011;59146;43.850;25.948;2023-06-10T10:13:35;15.40;;;7.90;;
71343;SDS011;59146;43.850;25.948;2023-06-10T10:16:04;13.50;;;7.40;;
71343;SDS011;59146;43.850;25.948;2023-06-10T10:18:35;15.95;;;7.07;;
71343;SDS011;59146;43.850;25.948;2023-06-10T10:21:04;16.10;;;7.45;;
71343;SDS011;59146;43.850;25.948;2023-06-10T10:26:18;10.25;;;6.97;;
71343;SDS011;59146;43.850;25.948;2023-06-10T10:28:58;18.98;;;6.95;;
71343;SDS011;59146;43.850;25.948;2023-06-10T10:31:32;13.82;;;5.93;;
71343;SDS011;59146;43.850;25.948;2023-06-10T10:34:02;14.75;;;5.10;;
71343;SDS011;59146;43.850;25.948;2023-06-10T10:36:31;7.55;;;4.63;;
71343;SDS011;59146;43.850;25.948;2023-06-10T10:38:57;6.70;;;4.53;;
71343;SDS011;59146;43.850;25.948;2023-06-10T10:41:24;8.82;;;4.40;;
71343;SDS011;59146;43.850;25.948;2023-06-10T10:43:51;7.97;;;4.75;;
71343;SDS011;59146;43.850;25.948;2023-06-10T10:46:18;8.88;;;3.90;;
71343;SDS011;59146;43.850;25.948;2023-06-10T10:48:43;8.05;;;4.57;;
71343;SDS011;59146;43.850;25.948;2023-06-10T10:51:10;16.42;;;4.50;;
71343;SDS011;59146;43.850;25.948;2023-06-10T10:53:37;10.80;;;4.40;;
71343;SDS011;59146;43.850;25.948;2023-06-10T10:56:07;11.65;;;4.75;;
71343;SDS011;59146;43.850;25.948;2023-06-10T10:58:33;10.13;;;4.30;;
71343;SDS011;59146;43.850;25.948;2023-06-10T11:00:59;6.63;;;4.72;;
71343;SDS011;59146;43.850;25.948;2023-06-10T11:03:35;11.13;;;5.45;;
71343;SDS011;59146;43.850;25.948;2023-06-10T11:06:15;6.45;;;4.32;;
71343;SDS011;59146;43.850;25.948;2023-06-10T11:11:19;11.73;;;4.70;;
71343;SDS011;59146;43.850;25.948;2023-06-10T11:16:29;10.02;;;6.28;;
71343;SDS011;59146;43.850;25.948;2023-06-10T11:19:02;10.75;;;3.75;;
71343;SDS011;59146;43.850;25.948;2023-06-10T11:21:28;10.38;;;4.03;;
71343;SDS011;59146;43.850;25.948;2023-06-10T11:23:53;12.57;;;4.30;;
71343;SDS011;59146;43.850;25.948;2023-06-10T11:33:51;15.50;;;4.60;;
71343;SDS011;59146;43.850;25.948;2023-06-10T11:38:44;13.48;;;4.30;;
71343;SDS011;59146;43.850;25.948;2023-06-10T11:41:13;11.50;;;4.47;;
71343;SDS011;59146;43.850;25.948;2023-06-10T11:43:45;5.85;;;3.97;;
71343;SDS011;59146;43.850;25.948;2023-06-10T11:46:11;5.35;;;4.28;;
71343;SDS011;59146;43.850;25.948;2023-06-10T11:48:37;8.52;;;3.88;;
71343;SDS011;59146;43.850;25.948;2023-06-10T11:51:09;10.05;;;4.40;;
71343;SDS011;59146;43.850;25.948;2023-06-10T11:53:34;7.30;;;3.88;;
71343;SDS011;59146;43.850;25.948;2023-06-10T11:56:00;9.23;;;3.80;;
71343;SDS011;59146;43.850;25.948;2023-06-10T11:58:26;8.93;;;4.72;;
71343;SDS011;59146;43.850;25.948;2023-06-10T12:00:52;9.85;;;4.10;;
71343;SDS011;59146;43.850;25.948;2023-06-10T12:03:19;12.68;;;5.60;;
71343;SDS011;59146;43.850;25.948;2023-06-10T12:08:24;10.45;;;4.82;;
71343;SDS011;59146;43.850;25.948;2023-06-10T12:10:50;10.95;;;5.00;;
71343;SDS011;59146;43.850;25.948;2023-06-10T12:13:15;11.43;;;4.20;;
71343;SDS011;59146;43.850;25.948;2023-06-10T12:15:43;8.35;;;4.13;;
71343;SDS011;59146;43.850;25.948;2023-06-10T12:18:15;9.20;;;4.05;;
71343;SDS011;59146;43.850;25.948;2023-06-10T12:20:44;14.02;;;4.80;;
71343;SDS011;59146;43.850;25.948;2023-06-10T12:23:10;9.50;;;4.57;;
71343;SDS011;59146;43.850;25.948;2023-06-10T12:25:37;12.02;;;4.85;;
71343;SDS011;59146;43.850;25.948;2023-06-10T12:28:03;10.40;;;4.75;;
71343;SDS011;59146;43.850;25.948;2023-06-10T12:30:29;9.00;;;4.38;;
71343;SDS011;59146;43.850;25.948;2023-06-10T12:32:56;10.40;;;4.40;;
71343;SDS011;59146;43.850;25.948;2023-06-10T12:35:22;9.57;;;5.65;;
71343;SDS011;59146;43.850;25.948;2023-06-10T12:38:04;7.55;;;4.93;;
71343;SDS011;59146;43.850;25.948;2023-06-10T12:40:34;11.80;;;5.20;;
71343;SDS011;59146;43.850;25.948;2023-06-10T12:43:01;13.75;;;6.30;;
71343;SDS011;59146;43.850;25.948;2023-06-10T12:45:34;13.63;;;5.88;;
71343;SDS011;59146;43.850;25.948;2023-06-10T12:50:36;13.25;;;6.00;;
71343;SDS011;59146;43.850;25.948;2023-06-10T12:53:03;20.20;;;6.00;;
71343;SDS011;59146;43.850;25.948;2023-06-10T12:55:28;10.10;;;5.70;;
71343;SDS011;59146;43.850;25.948;2023-06-10T12:57:54;12.85;;;6.53;;
71343;SDS011;59146;43.850;25.948;2023-06-10T13:00:20;14.32;;;5.97;;
71343;SDS011;59146;43.850;25.948;2023-06-10T13:02:45;15.05;;;5.88;;
71343;SDS011;59146;43.850;25.948;2023-06-10T13:05:11;12.18;;;6.75;;
71343;SDS011;59146;43.850;25.948;2023-06-10T13:07:36;11.05;;;5.38;;
71343;SDS011;59146;43.850;25.948;2023-06-10T13:10:02;13.27;;;5.30;;
71343;SDS011;59146;43.850;25.948;2023-06-10T13:12:27;14.43;;;5.05;;
71343;SDS011;59146;43.850;25.948;2023-06-10T13:14:54;18.65;;;6.07;;
71343;SDS011;59146;43.850;25.948;2023-06-10T13:17:20;15.73;;;5.47;;
71343;SDS011;59146;43.850;25.948;2023-06-10T13:19:46;13.57;;;5.57;;
71343;SDS011;59146;43.850;25.948;2023-06-10T13:22:11;12.05;;;5.18;;
71343;SDS011;59146;43.850;25.948;2023-06-10T13:24:40;14.10;;;5.72;;
71343;SDS011;59146;43.850;25.948;2023-06-10T13:27:06;12.60;;;5.60;;
71343;SDS011;59146;43.850;25.948;2023-06-10T13:29:32;9.00;;;5.25;;
71343;SDS011;59146;43.850;25.948;2023-06-10T13:31:57;8.65;;;5.32;;
71343;SDS011;59146;43.850;25.948;2023-06-10T13:34:23;16.33;;;5.85;;
71343;SDS011;59146;43.850;25.948;2023-06-10T13:36:48;10.57;;;4.97;;
71343;SDS011;59146;43.850;25.948;2023-06-10T13:39:14;9.38;;;5.05;;
71343;SDS011;59146;43.850;25.948;2023-06-10T13:41:40;10.45;;;5.28;;
71343;SDS011;59146;43.850;25.948;2023-06-10T13:44:06;10.80;;;4.93;;
71343;SDS011;59146;43.850;25.948;2023-06-10T13:46:32;10.25;;;4.97;;
71343;SDS011;59146;43.850;25.948;2023-06-10T13:48:57;13.85;;;5.53;;
71343;SDS011;59146;43.850;25.948;2023-06-10T13:51:23;12.88;;;5.72;;
71343;SDS011;59146;43.850;25.948;2023-06-10T13:53:48;10.93;;;5.15;;
71343;SDS011;59146;43.850;25.948;2023-06-10T13:56:14;11.85;;;5.43;;
71343;SDS011;59146;43.850;25.948;2023-06-10T13:58:39;12.60;;;5.93;;
71343;SDS011;59146;43.850;25.948;2023-06-10T14:01:06;12.82;;;5.28;;
71343;SDS011;59146;43.850;25.948;2023-06-10T14:03:32;11.63;;;5.05;;
71343;SDS011;59146;43.850;25.948;2023-06-10T14:05:58;11.00;;;5.03;;
71343;SDS011;59146;43.850;25.948;2023-06-10T14:08:23;13.55;;;5.25;;
71343;SDS011;59146;43.850;25.948;2023-06-10T14:10:49;9.32;;;5.45;;
71343;SDS011;59146;43.850;25.948;2023-06-10T14:13:16;8.73;;;4.57;;
71343;SDS011;59146;43.850;25.948;2023-06-10T14:15:42;13.30;;;5.53;;
71343;SDS011;59146;43.850;25.948;2023-06-10T14:18:07;11.48;;;4.70;;
71343;SDS011;59146;43.850;25.948;2023-06-10T14:20:33;9.13;;;4.28;;
71343;SDS011;59146;43.850;25.948;2023-06-10T14:22:58;9.73;;;5.38;;
71343;SDS011;59146;43.850;25.948;2023-06-10T14:25:24;12.98;;;5.30;;
71343;SDS011;59146;43.850;25.948;2023-06-10T14:27:50;9.70;;;4.97;;
71343;SDS011;59146;43.850;25.948;2023-06-10T14:30:16;10.40;;;6.13;;
71343;SDS011;59146;43.850;25.948;2023-06-10T14:32:41;12.80;;;5.28;;
71343;SDS011;59146;43.850;25.948;2023-06-10T14:35:07;8.68;;;5.43;;
71343;SDS011;59146;43.850;25.948;2023-06-10T14:37:33;7.20;;;4.70;;
71343;SDS011;59146;43.850;25.948;2023-06-10T14:39:58;8.15;;;4.57;;
71343;SDS011;59146;43.850;25.948;2023-06-10T14:42:24;8.25;;;4.97;;
71343;SDS011;59146;43.850;25.948;2023-06-10T14:44:49;16.70;;;5.53;;
71343;SDS011;59146;43.850;25.948;2023-06-10T14:47:15;10.35;;;5.28;;